Time;durP1;ratioP1;P1;durP2;ratioP2;P2;SDS_P1;SDS_P2;PMS_P1;PMS_P2;Temp;Humidity;BMP_temperature;BMP_pressure;BME280_temperature;BME280_humidity;BME280_pressure;Samples;Min_cycle;Max_cycle;Signal;HPM_P1;HPM_P2
2023/08/06 00:01:26;;;;;;;3.00;1.33;;;;;;;20.86;65.68;99903.75;5071971;28;20385;-86
2023/08/06 00:03:51;;;;;;;3.30;1.17;;;;;;;20.79;65.94;99877.03;5054528;28;20394;-87
2023/08/06 00:06:17;;;;;;;3.03;1.20;;;;;;;20.84;65.67;99881.66;5052910;28;20406;-86
2023/08/06 00:08:42;;;;;;;4.17;1.30;;;;;;;20.87;65.67;99891.88;5052052;28;20401;-86
2023/08/06 00:11:08;;;;;;;3.73;1.70;;;;;;;20.81;65.96;99893.75;5053308;28;20393;-87
2023/08/06 00:13:33;;;;;;;3.23;1.57;;;;;;;20.61;66.46;99894.38;5054809;28;20386;-85
2023/08/06 00:16:12;;;;;;;4.43;1.77;;;;;;;20.69;66.39;99885.84;5059293;28;20421;-83
2023/08/06 00:18:38;;;;;;;4.78;1.80;;;;;;;20.55;67.22;99873.84;5058137;28;20416;-83
2023/08/06 00:21:04;;;;;;;3.70;1.60;;;;;;;20.65;67.07;99879.34;5067689;28;20418;-82
2023/08/06 00:23:30;;;;;;;3.85;1.42;;;;;;;20.65;67.02;99900.88;5051649;28;20386;-82
2023/08/06 00:25:55;;;;;;;3.60;1.50;;;;;;;20.75;66.67;99903.66;5055130;28;20398;-83
2023/08/06 00:28:21;;;;;;;5.93;1.77;;;;;;;20.81;66.55;99905.34;5048846;28;20400;-85
2023/08/06 00:30:46;;;;;;;4.03;1.97;;;;;;;20.81;66.58;99901.81;5050379;28;20413;-84
2023/08/06 00:33:11;;;;;;;2.93;1.27;;;;;;;20.73;66.61;99913.09;5048172;28;20418;-85
2023/08/06 00:35:37;;;;;;;2.70;1.50;;;;;;;20.78;66.73;99905.84;5043918;28;20416;-84
2023/08/06 00:38:03;;;;;;;6.27;1.70;;;;;;;20.77;66.79;99890.75;5044752;28;20807;-85
2023/08/06 00:40:30;;;;;;;5.32;1.40;;;;;;;20.75;66.85;99905.56;5047313;28;20564;-82
2023/08/06 00:42:55;;;;;;;3.83;1.30;;;;;;;20.77;66.72;99881.88;5048157;28;20386;-84
2023/08/06 00:45:22;;;;;;;3.00;1.33;;;;;;;20.52;68.08;99825.91;5044480;28;20381;-85
2023/08/06 00:47:48;;;;;;;4.03;1.42;;;;;;;20.35;68.80;99764.94;5046311;28;20387;-85
2023/08/06 00:50:14;;;;;;;3.95;1.70;;;;;;;20.34;68.69;99733.69;5041027;28;20394;-84
2023/08/06 00:52:40;;;;;;;3.87;1.33;;;;;;;20.45;68.32;99745.34;5059008;28;20722;-85
2023/08/06 00:55:06;;;;;;;4.03;1.40;;;;;;;20.73;67.74;99797.28;5042850;28;20478;-86
2023/08/06 00:57:32;;;;;;;3.63;1.42;;;;;;;20.88;66.75;99797.34;5043831;28;20387;-85
2023/08/06 00:59:58;;;;;;;2.80;1.53;;;;;;;20.97;66.49;99824.63;5053715;28;20413;-81
2023/08/06 01:02:23;;;;;;;4.10;1.90;;;;;;;21.10;66.18;99834.13;5043433;28;20378;-83
2023/08/06 01:04:49;;;;;;;3.03;1.40;;;;;;;21.11;66.04;99850.03;5039162;28;20452;-82
2023/08/06 01:07:29;;;;;;;3.70;1.55;;;;;;;21.13;65.86;99853.25;5039443;28;20535;-82
2023/08/06 01:10:27;;;;;;;3.37;1.80;;;;;;;21.08;66.06;99841.66;5039381;28;20465;-85
2023/08/06 01:13:23;;;;;;;4.38;1.77;;;;;;;21.09;65.87;99852.19;5043207;28;20393;-86
2023/08/06 01:15:57;;;;;;;2.58;1.40;;;;;;;21.38;65.10;99927.28;5043173;28;20406;-85
2023/08/06 01:18:22;;;;;;;3.22;1.50;;;;;;;21.62;64.03;99875.63;5044091;28;20397;-85
2023/08/06 01:20:49;;;;;;;2.85;1.30;;;;;;;21.49;64.17;99858.88;5059735;28;20398;-85
2023/08/06 01:23:15;;;;;;;2.95;1.60;;;;;;;21.37;64.71;99918.38;5060185;28;20465;-85
2023/08/06 01:26:17;;;;;;;2.57;1.30;;;;;;;21.52;64.41;99888.00;5044189;28;20378;-86
2023/08/06 01:28:59;;;;;;;3.63;1.52;;;;;;;21.65;64.28;99889.41;5044829;28;20394;-85
2023/08/06 01:31:31;;;;;;;3.50;1.45;;;;;;;21.74;63.90;99882.44;5039097;28;20760;-83
2023/08/06 01:33:59;;;;;;;3.13;1.40;;;;;;;21.83;63.67;99927.78;5038818;28;20393;-83
2023/08/06 01:36:25;;;;;;;2.65;1.35;;;;;;;21.88;63.53;99942.09;5038042;28;20464;-83
2023/08/06 01:38:54;;;;;;;2.25;1.33;;;;;;;21.86;63.57;99938.88;5037819;28;20444;-82
2023/08/06 01:41:19;;;;;;;3.83;1.30;;;;;;;21.92;63.28;99935.09;5037685;28;20914;-82
2023/08/06 01:43:45;;;;;;;2.80;1.57;;;;;;;21.83;63.49;99931.28;5037493;28;20542;-81
2023/08/06 01:46:10;;;;;;;2.80;1.10;;;;;;;21.83;62.85;99917.00;5037911;28;20371;-80
2023/08/06 01:48:36;;;;;;;5.15;1.38;;;;;;;21.87;62.65;99910.78;5037453;28;20470;-81
2023/08/06 01:51:04;;;;;;;2.10;1.20;;;;;;;21.89;62.86;99902.44;5037230;28;20743;-81
2023/08/06 01:53:30;;;;;;;3.43;1.40;;;;;;;21.87;62.83;99899.19;5037327;28;20387;-81
2023/08/06 01:55:55;;;;;;;2.65;1.10;;;;;;;21.84;63.03;99891.63;5037457;28;20815;-80
2023/08/06 01:58:21;;;;;;;2.30;1.20;;;;;;;21.94;63.08;99888.97;5053157;28;20382;-80
2023/08/06 02:00:46;;;;;;;2.57;1.30;;;;;;;21.97;62.76;99858.75;5051550;28;20853;-80
2023/08/06 02:03:12;;;;;;;2.53;1.10;;;;;;;21.96;62.30;99840.94;5037085;28;20398;-81
2023/08/06 02:05:37;;;;;;;2.50;1.10;;;;;;;21.63;63.38;99826.84;5037473;28;20382;-80
2023/08/06 02:08:03;;;;;;;3.95;1.20;;;;;;;21.26;63.98;99791.88;5036705;28;20389;-80
2023/08/06 02:10:28;;;;;;;3.47;1.20;;;;;;;21.24;63.97;99824.47;5035428;28;20501;-79
2023/08/06 02:12:53;;;;;;;2.27;1.30;;;;;;;21.45;63.78;99856.94;5037022;28;20874;-79
2023/08/06 02:15:19;;;;;;;3.30;1.25;;;;;;;21.65;63.03;99834.66;5036405;28;20429;-79
2023/08/06 02:17:44;;;;;;;3.03;1.43;;;;;;;21.63;62.83;99839.50;5036884;28;20421;-79
2023/08/06 02:20:10;;;;;;;2.57;1.30;;;;;;;21.65;62.72;99861.63;5052650;28;20465;-79
2023/08/06 02:22:35;;;;;;;3.13;1.25;;;;;;;21.58;62.90;99846.50;5052257;28;20382;-79
2023/08/06 02:25:01;;;;;;;2.23;1.10;;;;;;;21.45;63.18;99838.06;5035846;28;20379;-79
2023/08/06 02:27:26;;;;;;;2.33;1.00;;;;;;;21.50;62.93;99847.03;5035976;28;20381;-79
2023/08/06 02:29:52;;;;;;;1.87;1.17;;;;;;;21.59;62.74;99852.72;5035923;28;20413;-79
2023/08/06 02:32:17;;;;;;;2.93;1.30;;;;;;;21.55;62.79;99846.22;5037117;28;20914;-79
2023/08/06 02:34:43;;;;;;;2.75;1.30;;;;;;;21.52;62.91;99847.56;5036528;28;20842;-79
2023/08/06 02:37:08;;;;;;;5.27;1.13;;;;;;;21.49;62.90;99844.56;5044178;28;20382;-79
2023/08/06 02:39:35;;;;;;;2.97;1.20;;;;;;;21.41;63.37;99850.44;5040331;28;20462;-79
2023/08/06 02:42:00;;;;;;;2.70;1.40;;;;;;;21.41;62.95;99840.47;5036956;28;20390;-79
2023/08/06 02:44:29;;;;;;;4.30;1.30;;;;;;;21.45;62.98;99825.41;5035876;28;20389;-78
2023/08/06 02:46:55;;;;;;;2.20;1.00;;;;;;;21.44;63.11;99818.38;5035371;28;20379;-78
2023/08/06 02:49:20;;;;;;;3.73;1.20;;;;;;;21.36;63.21;99808.09;5035543;28;20405;-78
2023/08/06 02:51:46;;;;;;;2.60;1.20;;;;;;;21.18;63.69;99804.78;5034803;28;20843;-78
2023/08/06 02:54:11;;;;;;;3.13;1.20;;;;;;;21.19;63.67;99795.63;5035299;28;20384;-78
2023/08/06 02:56:37;;;;;;;3.00;1.23;;;;;;;21.26;63.85;99778.41;5042651;28;20516;-78
2023/08/06 02:59:02;;;;;;;2.92;1.35;;;;;;;21.14;63.96;99784.84;5049642;28;20370;-79
2023/08/06 03:01:28;;;;;;;2.20;1.40;;;;;;;21.16;64.05;99782.69;5032272;28;20390;-78
2023/08/06 03:03:54;;;;;;;5.35;1.20;;;;;;;21.31;63.80;99773.03;5046868;28;20449;-77
2023/08/06 03:06:19;;;;;;;2.50;1.30;;;;;;;21.47;63.21;99788.22;5030830;28;20410;-77
2023/08/06 03:08:45;;;;;;;2.80;1.10;;;;;;;21.51;62.92;99778.50;5030484;28;20798;-77
2023/08/06 03:11:10;;;;;;;2.73;1.20;;;;;;;21.52;62.61;99784.75;5030726;28;20863;-78
2023/08/06 03:13:36;;;;;;;2.35;1.10;;;;;;;21.54;62.57;99775.28;5046398;28;20440;-77
2023/08/06 03:16:01;;;;;;;2.80;1.30;;;;;;;21.64;62.07;99777.19;5046569;28;20398;-77
2023/08/06 03:18:27;;;;;;;4.50;1.30;;;;;;;21.57;62.18;99772.06;5030931;28;20394;-77
2023/08/06 03:20:53;;;;;;;2.75;1.33;;;;;;;21.49;62.51;99763.69;5030734;28;20452;-78
2023/08/06 03:23:18;;;;;;;2.67;1.30;;;;;;;21.41;62.61;99759.59;5030481;28;20461;-77
2023/08/06 03:25:44;;;;;;;2.73;1.20;;;;;;;21.41;62.74;99766.84;5030576;28;20379;-77
2023/08/06 03:28:10;;;;;;;2.17;1.30;;;;;;;21.41;62.61;99774.94;5030524;28;20795;-77
2023/08/06 03:30:36;;;;;;;2.22;1.13;;;;;;;21.39;62.81;99786.81;5030524;28;20529;-77
2023/08/06 03:33:01;;;;;;;12.40;2.17;;;;;;;21.35;62.86;99796.50;5030718;28;20481;-77
2023/08/06 03:35:27;;;;;;;3.05;1.70;;;;;;;21.49;62.59;99802.25;5030430;28;20402;-76
2023/08/06 03:37:52;;;;;;;4.40;1.97;;;;;;;21.55;62.09;99798.50;5030173;28;20383;-78
2023/08/06 03:40:18;;;;;;;3.43;1.47;;;;;;;21.64;62.07;99804.16;5030442;28;20386;-78
2023/08/06 03:42:43;;;;;;;3.65;1.80;;;;;;;21.69;61.85;99790.69;5027774;28;20406;-77
2023/08/06 03:45:09;;;;;;;3.13;1.53;;;;;;;21.60;62.38;99791.50;5022379;28;20400;-77
2023/08/06 03:47:34;;;;;;;2.65;1.40;;;;;;;21.55;62.67;99779.63;5023680;28;20405;-77
2023/08/06 03:50:00;;;;;;;3.53;1.50;;;;;;;21.61;62.59;99777.75;5022446;28;20394;-76
2023/08/06 03:52:25;;;;;;;2.43;1.33;;;;;;;21.66;62.29;99783.16;5023613;28;20479;-77
2023/08/06 03:54:51;;;;;;;2.50;1.63;;;;;;;21.80;62.00;99783.44;5024779;28;20409;-76
2023/08/06 03:57:17;;;;;;;5.00;1.83;;;;;;;21.90;61.87;99782.66;5023274;28;20496;-76
2023/08/06 03:59:42;;;;;;;3.28;1.50;;;;;;;21.91;61.64;99771.59;5027418;28;20812;-76
2023/08/06 04:02:08;;;;;;;2.77;1.60;;;;;;;21.84;61.74;99786.41;5020706;28;20490;-77
2023/08/06 04:04:33;;;;;;;2.22;1.50;;;;;;;21.83;62.21;99784.81;5008746;28;20745;-77
2023/08/06 04:06:59;;;;;;;2.60;1.60;;;;;;;21.79;62.60;99781.81;5023297;28;20404;-77
2023/08/06 04:09:24;;;;;;;4.23;1.77;;;;;;;21.64;62.86;99782.59;5009225;28;20387;-77
2023/08/06 04:11:49;;;;;;;3.75;1.70;;;;;;;21.57;63.09;99774.78;5010267;28;20391;-77
2023/08/06 04:14:15;;;;;;;5.37;1.90;;;;;;;21.45;63.22;99776.88;5010311;28;20383;-77
2023/08/06 04:16:40;;;;;;;5.43;1.80;;;;;;;21.46;63.51;99786.59;5010636;28;20726;-77
2023/08/06 04:19:06;;;;;;;3.33;2.30;;;;;;;21.53;63.05;99786.34;5026203;28;20400;-76
2023/08/06 04:21:31;;;;;;;3.40;2.33;;;;;;;21.64;62.85;99798.78;5010364;28;20383;-77
2023/08/06 04:23:57;;;;;;;2.67;1.93;;;;;;;21.67;63.06;99800.94;5011317;28;20399;-77
2023/08/06 04:26:22;;;;;;;3.55;1.90;;;;;;;21.75;62.90;99813.09;5029963;28;20376;-77
2023/08/06 04:28:48;;;;;;;3.20;2.23;;;;;;;21.62;62.83;99800.13;5014212;28;20475;-76
2023/08/06 04:31:14;;;;;;;3.55;1.80;;;;;;;21.76;62.79;99799.34;5014253;28;20583;-77
2023/08/06 04:33:40;;;;;;;2.83;1.73;;;;;;;21.88;62.25;99799.09;5019078;28;20494;-76
2023/08/06 04:36:06;;;;;;;4.17;2.27;;;;;;;22.01;61.80;99795.06;5013840;28;20495;-77
2023/08/06 04:38:31;;;;;;;3.47;1.90;;;;;;;22.11;61.72;99792.38;5013773;28;20876;-76
2023/08/06 04:40:57;;;;;;;3.37;1.73;;;;;;;22.19;61.60;99796.44;5013847;28;20391;-76
2023/08/06 04:43:23;;;;;;;3.40;2.40;;;;;;;22.13;61.41;99798.31;5013654;28;20474;-76
2023/08/06 04:45:50;;;;;;;4.47;2.13;;;;;;;22.17;61.23;99793.19;5013719;28;20387;-76
2023/08/06 04:48:15;;;;;;;3.20;1.92;;;;;;;22.13;61.61;99806.44;5013841;28;20492;-76
2023/08/06 04:50:45;;;;;;;10.57;7.23;;;;;;;22.21;61.64;99809.66;5016200;28;20490;-76
2023/08/06 04:53:11;;;;;;;4.17;2.00;;;;;;;22.26;61.30;99815.06;5017481;28;20395;-77
2023/08/06 04:55:36;;;;;;;5.57;3.67;;;;;;;22.22;61.48;99816.66;5013960;28;20749;-77
2023/08/06 04:58:02;;;;;;;4.30;2.10;;;;;;;22.30;61.46;99829.69;5014004;28;20530;-75
2023/08/06 05:00:27;;;;;;;4.17;2.80;;;;;;;22.30;61.49;99821.56;5014498;28;20514;-77
2023/08/06 05:02:53;;;;;;;3.20;2.20;;;;;;;22.33;61.24;99818.34;5013940;28;20384;-78
2023/08/06 05:05:18;;;;;;;3.40;2.63;;;;;;;22.37;61.31;99822.13;5013512;28;20388;-77
2023/08/06 05:07:48;;;;;;;3.00;2.33;;;;;;;22.42;61.24;99824.00;5013441;28;20395;-76
2023/08/06 05:10:13;;;;;;;4.10;2.10;;;;;;;22.40;61.38;99818.88;5013368;28;20471;-77
2023/08/06 05:12:39;;;;;;;3.85;2.30;;;;;;;22.47;61.46;99826.69;5013413;28;20999;-77
2023/08/06 05:15:04;;;;;;;3.40;2.07;;;;;;;22.47;61.06;99824.81;5028853;28;20884;-76
2023/08/06 05:17:30;;;;;;;3.47;2.17;;;;;;;22.63;60.71;99838.31;5013731;28;20471;-77
2023/08/06 05:19:55;;;;;;;2.47;2.07;;;;;;;22.67;60.66;99837.50;5012941;28;20845;-75
2023/08/06 05:22:21;;;;;;;3.47;2.60;;;;;;;22.76;60.32;99826.13;5013377;28;20380;-75
2023/08/06 05:24:46;;;;;;;3.77;1.83;;;;;;;22.76;60.32;99835.06;5013100;28;20936;-75
2023/08/06 05:27:12;;;;;;;5.07;2.30;;;;;;;22.62;60.68;99834.78;5013657;28;20419;-76
2023/08/06 05:29:37;;;;;;;2.65;1.88;;;;;;;22.61;60.49;99837.75;5013453;28;20408;-76
2023/08/06 05:32:03;;;;;;;3.53;1.83;;;;;;;;;;5013019;28;20869;-76
2023/08/06 05:34:29;;;;;;;3.23;1.90;;;;;;;22.50;60.72;99826.16;5027924;28;20383;-74
2023/08/06 05:36:54;;;;;;;4.50;2.20;;;;;;;22.26;61.62;99818.59;5012870;28;20442;-75
2023/08/06 05:39:20;;;;;;;4.10;2.13;;;;;;;22.27;61.68;99817.53;5013304;28;20841;-75
2023/08/06 05:41:45;;;;;;;4.00;2.60;;;;;;;22.14;61.62;99813.41;5013288;28;20384;-76
2023/08/06 05:44:11;;;;;;;5.93;3.63;;;;;;;22.17;62.22;99820.19;5012806;28;20396;-76
2023/08/06 05:46:36;;;;;;;7.20;3.80;;;;;;;22.27;62.19;99797.81;5013121;28;20446;-76
2023/08/06 05:49:02;;;;;;;8.80;4.28;;;;;;;22.26;61.99;99791.59;5012421;28;20847;-76
2023/08/06 05:51:28;;;;;;;4.63;2.20;;;;;;;22.28;62.54;99796.75;5012648;28;20439;-76
2023/08/06 05:53:54;;;;;;;6.45;2.42;;;;;;;22.26;62.64;99801.56;5012548;28;20399;-76
2023/08/06 05:56:19;;;;;;;4.40;2.38;;;;;;;22.33;62.40;99799.44;5012470;28;20513;-76
2023/08/06 05:58:46;;;;;;;4.17;2.10;;;;;;;22.24;62.58;99811.84;5012574;28;20395;-76
2023/08/06 06:01:12;;;;;;;4.53;2.55;;;;;;;22.41;62.47;99801.59;5012513;28;20380;-76
2023/08/06 06:03:37;;;;;;;3.10;1.60;;;;;;;22.45;62.22;99805.34;5012082;28;20380;-76
2023/08/06 06:06:03;;;;;;;6.30;1.70;;;;;;;22.47;62.97;99815.88;5012336;28;20403;-76
2023/08/06 06:08:28;;;;;;;3.40;1.60;;;;;;;22.47;62.97;99819.41;5012409;28;20380;-76
2023/08/06 06:10:54;;;;;;;4.05;1.80;;;;;;;22.64;62.58;99824.53;5012213;28;20414;-76
2023/08/06 06:13:20;;;;;;;4.93;1.80;;;;;;;22.75;61.96;99835.34;5012235;28;20390;-76
2023/08/06 06:15:47;;;;;;;2.88;1.63;;;;;;;22.95;61.54;99842.59;5027717;28;20408;-76
2023/08/06 06:18:13;;;;;;;2.75;1.55;;;;;;;22.97;61.45;99837.72;5012268;28;20416;-76
2023/08/06 06:20:38;;;;;;;2.13;1.30;;;;;;;23.03;61.10;99837.44;5012227;28;20860;-75
2023/08/06 06:23:04;;;;;;;5.60;1.30;;;;;;;23.01;60.81;99830.66;5012236;28;20368;-77
2023/08/06 06:25:29;;;;;;;3.23;1.60;;;;;;;23.04;60.57;99828.25;5012242;28;20903;-76
2023/08/06 06:27:54;;;;;;;4.87;1.53;;;;;;;23.15;60.37;99814.72;5013556;28;20384;-75
2023/08/06 06:30:20;;;;;;;2.13;1.40;;;;;;;23.13;60.52;99815.00;5015162;28;20575;-77
2023/08/06 06:32:45;;;;;;;1.97;1.40;;;;;;;23.24;60.18;99811.16;5011710;28;20420;-75
2023/08/06 06:35:12;;;;;;;2.33;1.30;;;;;;;23.40;59.66;99801.09;5011878;28;20407;-75
2023/08/06 06:37:37;;;;;;;2.85;1.15;;;;;;;23.29;59.64;99807.63;5013121;28;20383;-75
2023/08/06 06:40:03;;;;;;;2.10;1.13;;;;;;;23.23;59.89;99809.56;5011985;28;20399;-76
2023/08/06 06:42:29;;;;;;;3.00;1.20;;;;;;;23.11;59.61;99810.97;5011845;28;20753;-76
2023/08/06 06:44:54;;;;;;;2.13;1.10;;;;;;;23.18;59.65;99823.09;5011763;28;20861;-75
2023/08/06 06:47:20;;;;;;;1.95;1.25;;;;;;;23.32;59.11;99834.13;5014321;28;20392;-75
2023/08/06 06:49:45;;;;;;;1.53;1.10;;;;;;;23.43;59.26;99840.31;5013331;28;20415;-75
2023/08/06 06:52:11;;;;;;;1.87;1.30;;;;;;;23.66;58.63;99849.69;5011496;28;20450;-76
2023/08/06 06:54:37;;;;;;;2.88;1.30;;;;;;;23.74;58.42;99868.03;5011567;28;20388;-76
2023/08/06 06:57:02;;;;;;;2.43;1.07;;;;;;;23.73;58.27;99871.81;5026889;28;20478;-76
2023/08/06 06:59:28;;;;;;;4.55;1.27;;;;;;;23.95;57.67;99871.47;5011049;28;20422;-75
2023/08/06 07:01:53;;;;;;;1.80;1.20;;;;;;;24.01;57.18;99873.03;5014347;28;20495;-76
2023/08/06 07:04:19;;;;;;;3.23;1.10;;;;;;;24.26;56.55;99882.09;5024160;28;20413;-76
2023/08/06 07:06:44;;;;;;;3.63;1.38;;;;;;;24.48;56.11;99881.66;5019004;28;20390;-76
2023/08/06 07:09:10;;;;;;;2.20;1.20;;;;;;;24.64;55.46;99887.00;5032525;28;20399;-76
2023/08/06 07:11:35;;;;;;;3.77;1.20;;;;;;;24.76;54.78;99895.56;5020919;28;20405;-76
2023/08/06 07:14:01;;;;;;;3.10;1.00;;;;;;;24.78;54.81;99905.03;5017091;28;20409;-76
2023/08/06 07:16:27;;;;;;;2.67;1.48;;;;;;;25.05;54.50;99902.88;5019232;28;20453;-76
2023/08/06 07:18:54;;;;;;;1.38;1.10;;;;;;;25.12;53.76;99889.78;5016326;28;20469;-76
2023/08/06 07:21:19;;;;;;;2.08;1.17;;;;;;;25.07;53.61;99887.94;5017582;28;20435;-75
2023/08/06 07:23:45;;;;;;;3.58;1.23;;;;;;;25.12;53.66;99877.03;5022292;28;20558;-75
2023/08/06 07:26:10;;;;;;;2.00;1.30;;;;;;;25.22;53.39;99872.59;5019381;28;20874;-76
2023/08/06 07:28:36;;;;;;;3.93;1.10;;;;;;;25.21;53.14;99868.25;5023079;28;20405;-75
2023/08/06 07:31:03;;;;;;;1.83;1.20;;;;;;;24.86;52.79;99876.47;5018228;28;20423;-75
2023/08/06 07:33:29;;;;;;;3.22;1.60;;;;;;;24.97;53.84;99875.31;5043414;28;20400;-75
2023/08/06 07:35:54;;;;;;;1.95;1.27;;;;;;;25.32;53.21;99875.25;5048173;28;20581;-75
2023/08/06 07:38:20;;;;;;;1.80;1.20;;;;;;;25.42;52.77;99875.09;5049023;28;20471;-76
2023/08/06 07:40:45;;;;;;;5.80;1.40;;;;;;;25.43;51.75;99867.78;5050156;28;20386;-75
2023/08/06 07:43:11;;;;;;;1.93;1.10;;;;;;;25.54;51.08;99872.78;5048543;28;20381;-74
2023/08/06 07:45:37;;;;;;;1.53;1.10;;;;;;;25.30;50.87;99861.97;5049464;28;20373;-77
2023/08/06 07:48:03;;;;;;;1.65;1.10;;;;;;;25.74;50.58;99870.91;5051886;28;20377;-76
2023/08/06 07:50:29;;;;;;;2.45;1.15;;;;;;;26.05;50.22;99862.38;5051671;28;20391;-75
2023/08/06 07:52:54;;;;;;;1.83;1.17;;;;;;;25.96;49.57;99864.94;5049646;28;20461;-76
2023/08/06 07:55:20;;;;;;;2.95;0.90;;;;;;;26.03;48.82;99861.84;5050488;28;20411;-75
2023/08/06 07:57:45;;;;;;;1.30;1.00;;;;;;;26.01;48.53;99864.88;5050687;28;20412;-76
2023/08/06 08:00:11;;;;;;;1.93;1.17;;;;;;;26.01;48.47;99850.47;5054548;28;20380;-75
2023/08/06 08:02:36;;;;;;;1.77;0.95;;;;;;;25.82;49.05;99853.16;5055014;28;20865;-75
2023/08/06 08:05:02;;;;;;;1.27;1.03;;;;;;;26.19;49.21;99851.56;5054418;28;20384;-76
2023/08/06 08:07:30;;;;;;;4.00;1.13;;;;;;;26.56;48.10;99853.41;5054821;28;20438;-76
2023/08/06 08:09:56;;;;;;;3.20;1.30;;;;;;;26.80;48.02;99866.09;5054540;28;20409;-75
2023/08/06 08:12:21;;;;;;;1.63;0.95;;;;;;;26.98;46.69;99870.66;5053733;28;20415;-75
2023/08/06 08:14:47;;;;;;;2.17;1.10;;;;;;;26.89;47.03;99859.66;5055245;28;20402;-75
2023/08/06 08:17:12;;;;;;;1.67;1.20;;;;;;;27.07;46.54;99868.84;5054903;28;20399;-76
2023/08/06 08:19:38;;;;;;;3.57;1.30;;;;;;;27.09;46.51;99863.09;5054790;28;20861;-75
2023/08/06 08:22:03;;;;;;;2.67;1.33;;;;;;;26.96;46.00;99855.75;5054018;28;20388;-75
2023/08/06 08:24:30;;;;;;;2.10;1.45;;;;;;;26.88;45.63;99866.22;5055112;28;20901;-75
2023/08/06 08:26:56;;;;;;;3.27;1.30;;;;;;;26.88;45.97;99854.50;5056186;28;20456;-74
2023/08/06 08:29:22;;;;;;;3.83;1.10;;;;;;;27.15;45.72;99858.34;5053706;28;20507;-76
2023/08/06 08:31:50;;;;;;;1.60;1.25;;;;;;;26.98;44.98;99851.59;5054716;28;20412;-76
2023/08/06 08:34:18;;;;;;;1.77;1.20;;;;;;;26.98;44.54;99861.69;5053675;28;20729;-76
2023/08/06 08:36:47;;;;;;;2.47;1.17;;;;;;;26.93;45.42;99865.28;5053759;28;20403;-76
2023/08/06 08:39:12;;;;;;;2.85;1.17;;;;;;;27.19;45.03;99868.34;5053708;28;20395;-75
2023/08/06 08:41:39;;;;;;;2.05;1.30;;;;;;;27.00;44.54;99854.03;5053566;28;20459;-75
2023/08/06 08:44:12;;;;;;;2.95;1.60;;;;;;;27.08;44.75;99854.13;5055622;28;20449;-74
2023/08/06 08:46:40;;;;;;;2.50;1.45;;;;;;;27.36;44.86;99848.72;5054951;28;20373;-76
2023/08/06 08:49:06;;;;;;;3.15;1.30;;;;;;;27.70;45.27;99844.75;5053555;28;20801;-76
2023/08/06 08:51:34;;;;;;;2.97;1.40;;;;;;;27.81;44.53;99843.38;5053508;28;20364;-75
2023/08/06 08:54:02;;;;;;;1.48;1.08;;;;;;;27.96;43.97;99836.00;5054243;28;20377;-75
2023/08/06 08:56:27;;;;;;;1.58;1.25;;;;;;;28.11;44.34;99822.03;5054500;28;20389;-76
2023/08/06 08:58:55;;;;;;;2.40;1.80;;;;;;;28.13;43.22;99828.00;5054495;28;20381;-76
2023/08/06 09:01:22;;;;;;;2.00;1.40;;;;;;;28.25;43.26;99826.63;5053818;28;20391;-76
2023/08/06 09:03:48;;;;;;;1.40;1.20;;;;;;;28.32;42.42;99822.34;5053230;28;20873;-75
2023/08/06 09:06:15;;;;;;;1.30;1.20;;;;;;;28.34;42.70;99817.41;5053596;28;20364;-75
2023/08/06 09:08:51;;;;;;;2.10;1.50;;;;;;;28.27;42.55;99821.66;5053514;28;20380;-76
2023/08/06 09:11:20;;;;;;;2.15;1.58;;;;;;;27.90;42.25;99824.44;5052050;28;20439;-75
2023/08/06 09:13:47;;;;;;;2.63;1.70;;;;;;;28.12;42.97;99815.47;5053160;28;20399;-75
2023/08/06 09:16:12;;;;;;;2.60;1.30;;;;;;;28.31;42.49;99809.84;5052872;28;20407;-76
2023/08/06 09:18:39;;;;;;;3.08;1.80;;;;;;;28.50;42.41;99808.81;5053213;28;20749;-75
2023/08/06 09:21:04;;;;;;;2.90;1.45;;;;;;;28.14;42.46;99815.94;5053028;28;20369;-76
2023/08/06 09:23:31;;;;;;;2.03;1.60;;;;;;;28.02;43.18;99802.09;5052968;28;20403;-75
2023/08/06 09:25:57;;;;;;;2.63;1.60;;;;;;;28.08;42.46;99798.13;5052831;28;20439;-75
2023/08/06 09:28:24;;;;;;;3.75;1.92;;;;;;;28.40;41.68;99799.00;5051977;28;20480;-76
2023/08/06 09:30:50;;;;;;;1.85;1.70;;;;;;;28.64;41.59;99795.13;5051928;28;20415;-76
2023/08/06 09:33:19;;;;;;;2.45;1.90;;;;;;;28.66;41.75;99799.16;5052898;28;20853;-75
2023/08/06 09:35:46;;;;;;;1.43;1.27;;;;;;;28.78;41.42;99801.28;5053070;28;20427;-75
2023/08/06 09:38:12;;;;;;;3.23;2.93;;;;;;;28.77;42.08;99792.31;5052931;28;20377;-76
2023/08/06 09:40:38;;;;;;;2.90;2.17;;;;;;;28.94;41.90;99801.69;5051390;28;20377;-75
2023/08/06 09:43:05;;;;;;;2.83;2.50;;;;;;;28.97;41.72;99807.31;5052387;28;20464;-75
2023/08/06 09:45:35;;;;;;;2.38;2.10;;;;;;;28.50;41.25;99808.81;5052617;28;20406;-75
2023/08/06 09:48:05;;;;;;;2.85;1.95;;;;;;;28.39;41.96;99802.81;5052593;28;20376;-76
2023/08/06 09:50:33;;;;;;;2.03;1.83;;;;;;;28.84;41.92;99804.69;5053053;28;20857;-76
2023/08/06 09:53:00;;;;;;;3.80;2.17;;;;;;;28.59;41.91;99807.78;5052520;28;20418;-76
2023/08/06 09:55:26;;;;;;;2.10;1.90;;;;;;;28.72;40.92;99810.72;5052322;28;20718;-76
2023/08/06 09:57:52;;;;;;;2.28;2.08;;;;;;;28.97;41.10;99814.66;5052005;28;20420;-75
2023/08/06 10:00:18;;;;;;;2.47;1.90;;;;;;;28.97;41.09;99818.22;5052796;28;20377;-75
2023/08/06 10:02:45;;;;;;;5.38;2.10;;;;;;;28.86;40.06;99825.06;5052313;28;20923;-76
2023/08/06 10:05:11;;;;;;;2.47;1.98;;;;;;;28.52;40.60;99807.41;5052825;28;20862;-75
2023/08/06 10:07:40;;;;;;;2.40;2.20;;;;;;;28.53;40.96;99819.09;5052718;28;20446;-76
2023/08/06 10:10:07;;;;;;;2.40;2.20;;;;;;;28.73;40.21;99826.78;5051894;28;20402;-75
2023/08/06 10:12:35;;;;;;;2.60;2.40;;;;;;;28.46;40.46;99830.44;5052229;28;20395;-75
2023/08/06 10:15:06;;;;;;;3.20;2.60;;;;;;;28.43;40.24;99822.88;5052116;28;20365;-74
2023/08/06 10:17:34;;;;;;;3.47;2.60;;;;;;;28.51;40.48;99821.34;5053551;28;20507;-75
2023/08/06 10:20:00;;;;;;;3.30;3.00;;;;;;;28.43;40.74;99831.06;5052758;28;20364;-76
2023/08/06 10:22:27;;;;;;;3.88;2.78;;;;;;;28.36;40.50;99828.78;5054102;28;20440;-75
2023/08/06 10:24:54;;;;;;;3.60;3.30;;;;;;;28.66;40.49;99811.97;5051890;28;20376;-75
2023/08/06 10:27:30;;;;;;;3.05;2.70;;;;;;;28.14;40.30;99824.13;5051493;28;20863;-76
2023/08/06 10:30:16;;;;;;;2.92;2.72;;;;;;;27.81;40.65;99821.59;5051486;28;20404;-75
2023/08/06 10:32:49;;;;;;;3.65;3.03;;;;;;;28.04;40.72;99816.22;5051347;28;20380;-75
2023/08/06 10:35:34;;;;;;;4.32;3.17;;;;;;;28.55;39.52;99814.16;5051338;28;20442;-74
2023/08/06 10:38:09;;;;;;;3.60;3.30;;;;;;;28.64;40.07;99806.03;5051071;28;20385;-76
2023/08/06 10:40:36;;;;;;;3.65;3.25;;;;;;;28.77;40.24;99808.69;5051721;28;20380;-74
2023/08/06 10:43:03;;;;;;;5.35;3.90;;;;;;;29.12;39.14;99813.47;5052649;28;20906;-75
2023/08/06 10:45:30;;;;;;;4.53;4.10;;;;;;;29.12;38.73;99800.59;5051421;28;20383;-76
2023/08/06 10:47:57;;;;;;;4.37;3.80;;;;;;;29.22;39.07;99802.25;5051365;28;20380;-75
2023/08/06 10:50:23;;;;;;;4.10;3.70;;;;;;;29.26;38.57;99810.63;5042163;28;20709;-76
2023/08/06 10:52:49;;;;;;;4.32;3.92;;;;;;;29.42;38.61;99797.31;5022052;28;20398;-75
2023/08/06 10:55:22;;;;;;;4.50;4.10;;;;;;;29.52;38.16;99799.75;5023224;28;20451;-75
2023/08/06 10:57:47;;;;;;;4.50;4.10;;;;;;;29.72;37.75;99793.66;5025388;28;20418;-75
2023/08/06 11:00:13;;;;;;;5.73;3.83;;;;;;;29.70;37.08;99781.47;5021856;28;20402;-75
2023/08/06 11:02:39;;;;;;;4.97;4.30;;;;;;;29.71;37.18;99800.25;5041939;28;21215;-75
2023/08/06 11:05:08;;;;;;;6.43;4.73;;;;;;;29.70;37.56;99790.44;5028853;28;20458;-76
2023/08/06 11:07:35;;;;;;;5.07;4.57;;;;;;;30.01;37.23;99794.97;5029609;28;20388;-75
2023/08/06 11:10:06;;;;;;;4.22;3.92;;;;;;;29.91;36.56;99787.13;5030423;28;20382;-75
2023/08/06 11:12:32;;;;;;;4.20;3.80;;;;;;;29.83;36.81;99788.72;5031440;28;20393;-75
2023/08/06 11:14:58;;;;;;;4.82;4.00;;;;;;;29.65;37.60;99781.59;5031213;28;20378;-75
2023/08/06 11:17:24;;;;;;;4.60;4.13;;;;;;;29.51;37.67;99781.75;5031617;28;20425;-75
2023/08/06 11:19:50;;;;;;;3.65;3.35;;;;;;;29.16;38.22;99789.91;5031580;28;20406;-76
2023/08/06 11:25:01;;;;;;;4.18;3.75;;;;;;;29.21;39.26;99783.47;5031073;28;20421;-74
2023/08/06 11:27:28;;;;;;;4.17;3.70;;;;;;;29.27;39.40;99787.66;5031301;28;20418;-76
2023/08/06 11:29:54;;;;;;;4.10;3.70;;;;;;;29.07;39.92;99792.56;5046419;28;20869;-75
2023/08/06 11:32:20;;;;;;;5.30;3.60;;;;;;;28.68;40.54;99793.38;5030611;28;20886;-75
2023/08/06 11:34:45;;;;;;;4.25;3.70;;;;;;;28.96;40.60;99792.06;5031496;28;20474;-76